Time;durP1;ratioP1;P1;durP2;ratioP2;P2;SDS_P1;SDS_P2;PMS_P1;PMS_P2;Temp;Humidity;BMP_temperature;BMP_pressure;BME280_temperature;BME280_humidity;BME280_pressure;Samples;Min_cycle;Max_cycle;Signal;HPM_P1;HPM_P2
2022/04/05 00:00:09;;;;;;;24.77;7.90;;;10.90;99.90;;;;;;5031966;28;20706;-61
2022/04/05 00:02:34;;;;;;;21.27;7.77;;;10.90;99.90;;;;;;5032100;28;20633;-61
2022/04/05 00:05:00;;;;;;;28.90;7.67;;;10.90;99.90;;;;;;5032090;28;20185;-61
2022/04/05 00:07:26;;;;;;;27.43;8.30;;;10.90;99.90;;;;;;5031948;28;20645;-61
2022/04/05 00:09:52;;;;;;;21.47;8.13;;;10.80;99.90;;;;;;5031684;28;20740;-61
2022/04/05 00:12:20;;;;;;;23.03;7.70;;;10.80;99.90;;;;;;5031779;28;20177;-60
2022/04/05 00:14:47;;;;;;;24.83;7.77;;;10.80;99.90;;;;;;5031823;28;20239;-61
2022/04/05 00:17:13;;;;;;;24.37;8.27;;;10.70;99.90;;;;;;5031703;28;20166;-61
2022/04/05 00:19:39;;;;;;;28.97;9.47;;;10.70;99.90;;;;;;5031686;28;20177;-61
2022/04/05 00:22:05;;;;;;;27.50;8.43;;;10.70;99.90;;;;;;5031763;28;20269;-61
2022/04/05 00:24:31;;;;;;;22.37;8.63;;;10.60;99.90;;;;;;5030238;28;20181;-61
2022/04/05 00:26:57;;;;;;;28.17;9.50;;;10.60;99.90;;;;;;5031574;28;20227;-61
2022/04/05 00:29:23;;;;;;;21.47;8.33;;;10.60;99.90;;;;;;5031454;28;20212;-61
2022/04/05 00:31:52;;;;;;;24.80;9.00;;;10.60;99.90;;;;;;5031390;28;20177;-60
2022/04/05 00:34:18;;;;;;;29.07;9.90;;;10.60;99.90;;;;;;5031513;28;20751;-61
2022/04/05 00:36:45;;;;;;;24.73;9.37;;;10.60;99.90;;;;;;5031263;28;20174;-61
2022/04/05 00:39:11;;;;;;;22.07;8.93;;;10.60;99.90;;;;;;5031047;28;20193;-61
2022/04/05 00:41:38;;;;;;;21.87;8.73;;;10.60;99.90;;;;;;5031305;28;20174;-61
2022/04/05 00:44:04;;;;;;;25.10;7.60;;;10.60;99.90;;;;;;5031434;28;20182;-61
2022/04/05 00:46:30;;;;;;;23.40;7.33;;;10.60;99.90;;;;;;5031259;28;20174;-60
2022/04/05 00:48:58;;;;;;;32.83;7.63;;;10.60;99.90;;;;;;5030949;28;20264;-61
2022/04/05 00:51:26;;;;;;;23.37;6.97;;;10.60;99.90;;;;;;5031167;28;20176;-60
2022/04/05 00:53:59;;;;;;;21.33;6.40;;;10.60;99.90;;;;;;5031181;28;20288;-60
2022/04/05 00:56:27;;;;;;;21.83;6.43;;;10.60;99.90;;;;;;5031099;28;20177;-61
2022/04/05 00:58:54;;;;;;;22.07;5.93;;;10.60;99.90;;;;;;5030962;28;20185;-61
2022/04/05 01:01:22;;;;;;;17.10;5.13;;;10.60;99.90;;;;;;5031101;28;20184;-61
2022/04/05 01:03:49;;;;;;;17.40;5.50;;;10.70;99.90;;;;;;5030849;28;20716;-61
2022/04/05 01:06:18;;;;;;;23.00;5.17;;;10.70;99.90;;;;;;5030407;28;20197;-61
2022/04/05 01:08:48;;;;;;;21.27;4.67;;;10.70;99.90;;;;;;5030706;28;20208;-61
2022/04/05 01:11:14;;;;;;;15.63;4.70;;;10.70;99.90;;;;;;5030958;28;20178;-61
2022/04/05 01:13:40;;;;;;;15.47;4.50;;;10.70;99.90;;;;;;5030779;28;20174;-61
2022/04/05 01:16:07;;;;;;;14.20;3.90;;;10.70;99.90;;;;;;5030749;28;20228;-61
2022/04/05 01:18:33;;;;;;;19.60;4.90;;;10.70;99.90;;;;;;5030596;28;20249;-61
2022/04/05 01:20:59;;;;;;;15.83;5.00;;;10.70;99.90;;;;;;5029281;28;20174;-61
2022/04/05 01:23:25;;;;;;;14.23;5.07;;;10.70;99.90;;;;;;5029327;28;20240;-61
2022/04/05 01:25:52;;;;;;;20.53;4.83;;;10.70;99.90;;;;;;5030675;28;20593;-61
2022/04/05 01:28:21;;;;;;;18.07;6.00;;;10.70;99.90;;;;;;5030382;28;20215;-61
2022/04/05 01:30:47;;;;;;;13.90;5.60;;;10.70;99.90;;;;;;5030653;28;20174;-61
2022/04/05 01:33:13;;;;;;;24.03;7.40;;;10.60;99.90;;;;;;5030553;28;20217;-61
2022/04/05 01:35:40;;;;;;;16.00;7.00;;;10.60;99.90;;;;;;5030500;28;20180;-61
2022/04/05 01:38:07;;;;;;;22.70;6.40;;;10.50;99.90;;;;;;5030478;28;20621;-61
2022/04/05 01:40:33;;;;;;;24.50;6.33;;;10.50;99.90;;;;;;5030353;28;20153;-61
2022/04/05 01:42:59;;;;;;;18.27;6.60;;;10.50;99.90;;;;;;5030444;28;20170;-61
2022/04/05 01:45:25;;;;;;;14.40;6.40;;;10.50;99.90;;;;;;5030389;28;20578;-61
2022/04/05 01:47:51;;;;;;;20.17;6.20;;;10.40;99.90;;;;;;5028758;28;20634;-61
2022/04/05 01:50:17;;;;;;;20.50;5.87;;;10.40;99.90;;;;;;5030263;28;20201;-61
2022/04/05 01:52:43;;;;;;;19.03;6.00;;;10.40;99.90;;;;;;5030273;28;20274;-62
2022/04/05 01:55:09;;;;;;;22.27;7.00;;;10.40;99.90;;;;;;5030278;28;20181;-61
2022/04/05 01:57:35;;;;;;;22.00;6.97;;;10.30;99.90;;;;;;5030351;28;20170;-62
2022/04/05 02:00:02;;;;;;;25.20;6.47;;;10.30;99.90;;;;;;5030215;28;20213;-60
2022/04/05 02:02:28;;;;;;;24.43;6.60;;;10.30;99.90;;;;;;5030184;28;20180;-60
2022/04/05 02:04:54;;;;;;;25.07;7.17;;;10.30;99.90;;;;;;5030342;28;20257;-62
2022/04/05 02:07:21;;;;;;;29.03;7.40;;;10.20;99.90;;;;;;5030251;28;20636;-62
2022/04/05 02:09:49;;;;;;;19.73;7.00;;;10.20;99.90;;;;;;5029961;28;20688;-59
2022/04/05 02:12:18;;;;;;;21.60;7.20;;;10.20;99.90;;;;;;5030067;28;20186;-61
2022/04/05 02:14:44;;;;;;;26.33;7.67;;;10.20;99.90;;;;;;5030056;28;20186;-60
2022/04/05 02:17:11;;;;;;;16.83;7.90;;;10.20;99.90;;;;;;5031255;28;20194;-61
2022/04/05 02:19:38;;;;;;;24.93;8.33;;;10.20;99.90;;;;;;5033869;28;20185;-60
2022/04/05 02:22:04;;;;;;;29.83;9.53;;;10.20;99.90;;;;;;5033976;28;20584;-60
2022/04/05 02:24:30;;;;;;;29.00;9.30;;;10.10;99.90;;;;;;5033914;28;20173;-60
2022/04/05 02:26:56;;;;;;;27.07;9.07;;;10.10;99.90;;;;;;5033858;28;20189;-61
2022/04/05 02:29:22;;;;;;;29.20;9.90;;;10.10;99.90;;;;;;5033600;28;20202;-60
2022/04/05 02:31:48;;;;;;;30.57;9.67;;;10.10;99.90;;;;;;5033768;28;20170;-60
2022/04/05 02:34:14;;;;;;;28.43;10.17;;;10.10;99.90;;;;;;5033888;28;20170;-60
2022/04/05 02:36:40;;;;;;;28.47;9.90;;;10.20;99.90;;;;;;5033568;28;20178;-60
2022/04/05 02:39:06;;;;;;;25.97;9.17;;;10.10;99.90;;;;;;5033600;28;20166;-61
2022/04/05 02:41:32;;;;;;;27.43;9.10;;;10.20;99.90;;;;;;5033374;28;20208;-60
2022/04/05 02:44:01;;;;;;;29.67;9.73;;;10.10;99.90;;;;;;5033578;28;20198;-61
2022/04/05 02:46:27;;;;;;;33.00;9.40;;;10.10;99.90;;;;;;5033637;28;20202;-61
2022/04/05 02:48:54;;;;;;;23.17;9.60;;;10.10;99.90;;;;;;5031887;28;20236;-61
2022/04/05 02:51:22;;;;;;;36.10;9.83;;;10.20;99.90;;;;;;5033353;28;20161;-61
2022/04/05 02:53:48;;;;;;;28.83;9.00;;;10.20;99.90;;;;;;5033353;28;20177;-64
2022/04/05 02:56:15;;;;;;;27.30;8.73;;;10.20;99.90;;;;;;5033371;28;20184;-60
2022/04/05 02:58:41;;;;;;;23.03;8.00;;;10.20;99.90;;;;;;5033163;28;20625;-60
2022/04/05 03:01:07;;;;;;;23.40;7.93;;;10.20;99.90;;;;;;5033198;28;20189;-60
2022/04/05 03:03:33;;;;;;;30.20;8.33;;;10.20;99.90;;;;;;5033279;28;20621;-60
2022/04/05 03:06:00;;;;;;;23.83;7.70;;;10.20;99.90;;;;;;5033110;28;20201;-61
2022/04/05 03:08:25;;;;;;;20.83;7.97;;;10.30;99.90;;;;;;5033060;28;20178;-61
2022/04/05 03:10:52;;;;;;;28.43;9.20;;;10.30;99.90;;;;;;5033159;28;20236;-60
2022/04/05 03:13:19;;;;;;;23.13;8.80;;;10.30;99.90;;;;;;5032904;28;20189;-61
2022/04/05 03:15:44;;;;;;;25.33;8.13;;;10.30;99.90;;;;;;5033090;28;20201;-61
2022/04/05 03:18:10;;;;;;;31.43;9.30;;;10.30;99.90;;;;;;5032987;28;20210;-61
2022/04/05 03:20:36;;;;;;;26.67;8.50;;;10.30;99.90;;;;;;5032831;28;20478;-61
2022/04/05 03:23:03;;;;;;;23.57;8.37;;;10.30;99.90;;;;;;5033366;28;20643;-60
2022/04/05 03:25:28;;;;;;;22.43;8.77;;;10.30;99.90;;;;;;5032618;28;20626;-60
2022/04/05 03:27:54;;;;;;;20.60;8.30;;;10.30;99.90;;;;;;5032338;28;20178;-60
2022/04/05 03:30:22;;;;;;;25.27;9.70;;;10.40;99.90;;;;;;5032565;28;20205;-61
2022/04/05 03:32:48;;;;;;;23.83;8.47;;;10.40;99.90;;;;;;5032733;28;20208;-61
2022/04/05 03:35:15;;;;;;;21.17;8.97;;;10.40;99.90;;;;;;5031406;28;20559;-60
2022/04/05 03:37:41;;;;;;;25.83;9.13;;;10.40;99.90;;;;;;5032479;28;20236;-61
2022/04/05 03:40:08;;;;;;;22.87;8.43;;;10.40;99.90;;;;;;5032540;28;20312;-60
2022/04/05 03:42:34;;;;;;;21.67;8.40;;;10.40;99.90;;;;;;5032517;28;20178;-61
2022/04/05 03:45:00;;;;;;;22.13;9.43;;;10.40;99.90;;;;;;5032308;28;20170;-61
2022/04/05 03:47:27;;;;;;;26.60;9.10;;;10.50;99.90;;;;;;5032225;28;20174;-60
2022/04/05 03:49:53;;;;;;;25.17;9.47;;;10.40;99.90;;;;;;5032178;28;20221;-60
2022/04/05 03:52:19;;;;;;;26.50;9.83;;;10.40;99.90;;;;;;5032370;28;20511;-60
2022/04/05 03:54:46;;;;;;;29.27;9.57;;;10.40;99.90;;;;;;5032208;28;20178;-60
2022/04/05 03:57:12;;;;;;;23.23;10.00;;;10.50;99.90;;;;;;5032325;28;20178;-61
2022/04/05 03:59:38;;;;;;;29.57;10.00;;;10.40;99.90;;;;;;5032181;28;20174;-61
2022/04/05 04:02:04;;;;;;;33.23;10.90;;;10.40;99.90;;;;;;5032213;28;20620;-61
2022/04/05 04:04:30;;;;;;;27.13;10.43;;;10.40;99.90;;;;;;5032105;28;20170;-60
2022/04/05 04:06:56;;;;;;;22.33;9.60;;;10.40;99.90;;;;;;5031942;28;20173;-61
2022/04/05 04:09:22;;;;;;;34.63;11.87;;;10.40;99.90;;;;;;5031890;28;20231;-61
2022/04/05 04:11:49;;;;;;;26.20;10.73;;;10.40;99.90;;;;;;5031941;28;20169;-61
2022/04/05 04:14:15;;;;;;;33.23;11.50;;;10.30;99.90;;;;;;5030517;28;20534;-61
2022/04/05 04:16:42;;;;;;;33.53;10.53;;;10.30;99.90;;;;;;5031823;28;20502;-60
2022/04/05 04:19:08;;;;;;;30.67;10.80;;;10.30;99.90;;;;;;5031986;28;20284;-61
2022/04/05 04:21:34;;;;;;;32.37;10.70;;;10.30;99.90;;;;;;5031719;28;20583;-61
2022/04/05 04:23:59;;;;;;;32.10;12.07;;;10.30;99.90;;;;;;5031594;28;20170;-61
2022/04/05 04:26:25;;;;;;;33.87;12.50;;;10.30;99.90;;;;;;5031739;28;20231;-61
2022/04/05 04:28:55;;;;;;;28.40;10.87;;;10.30;99.90;;;;;;5031567;28;20197;-59
2022/04/05 04:31:21;;;;;;;35.17;11.07;;;10.30;99.90;;;;;;5031443;28;20192;-60
2022/04/05 04:33:47;;;;;;;35.07;11.30;;;10.30;99.90;;;;;;5031476;28;20182;-60
2022/04/05 04:36:13;;;;;;;43.00;12.27;;;10.20;99.90;;;;;;5030273;28;20181;-60
2022/04/05 04:38:39;;;;;;;38.30;10.67;;;10.20;99.90;;;;;;5031363;28;20166;-59
2022/04/05 04:41:05;;;;;;;30.93;10.33;;;10.20;99.90;;;;;;5030525;28;20664;-60
2022/04/05 04:43:31;;;;;;;35.43;10.00;;;10.30;99.90;;;;;;5031426;28;20198;-60
2022/04/05 04:45:56;;;;;;;35.17;9.87;;;10.20;99.90;;;;;;5031207;28;20527;-60
2022/04/05 04:48:22;;;;;;;30.00;10.20;;;10.20;99.90;;;;;;5030982;28;20222;-60
2022/04/05 04:50:49;;;;;;;33.90;10.83;;;10.20;99.90;;;;;;5031156;28;20174;-60
2022/04/05 04:53:15;;;;;;;27.57;9.33;;;10.20;99.90;;;;;;5031087;28;20174;-60
2022/04/05 04:55:42;;;;;;;33.30;11.40;;;10.20;99.90;;;;;;5031118;28;20263;-60
2022/04/05 04:58:08;;;;;;;34.83;12.00;;;10.20;99.90;;;;;;5030987;28;20165;-60
2022/04/05 05:00:34;;;;;;;36.60;10.70;;;10.10;99.90;;;;;;5030994;28;20237;-60
2022/04/05 05:02:59;;;;;;;45.17;11.10;;;10.10;99.90;;;;;;5031030;28;20531;-61
2022/04/05 05:05:25;;;;;;;31.93;10.53;;;10.10;99.90;;;;;;5031028;28;20239;-61
2022/04/05 05:07:52;;;;;;;35.77;10.17;;;10.10;99.90;;;;;;5030973;28;20186;-61
2022/04/05 05:10:20;;;;;;;29.03;11.00;;;10.10;99.90;;;;;;5029473;28;20221;-61
2022/04/05 05:12:46;;;;;;;33.27;10.27;;;10.00;99.90;;;;;;5030805;28;20196;-61
2022/04/05 05:15:15;;;;;;;36.53;9.73;;;10.10;99.90;;;;;;5030772;28;20517;-61
2022/04/05 05:17:41;;;;;;;40.23;9.67;;;10.10;99.90;;;;;;5030695;28;20189;-61
2022/04/05 05:20:09;;;;;;;24.83;9.30;;;10.10;99.90;;;;;;5030745;28;20311;-61
2022/04/05 05:22:35;;;;;;;35.27;9.70;;;10.10;99.90;;;;;;5030650;28;20168;-61
2022/04/05 05:25:01;;;;;;;27.37;9.50;;;10.10;99.90;;;;;;5030766;28;20174;-61
2022/04/05 05:27:29;;;;;;;28.77;9.73;;;10.10;99.90;;;;;;5030609;28;20246;-61
2022/04/05 05:29:55;;;;;;;28.13;10.20;;;10.10;99.90;;;;;;5030543;28;20234;-61
2022/04/05 05:32:20;;;;;;;32.73;10.57;;;10.10;99.90;;;;;;5030464;28;20197;-61
2022/04/05 05:34:46;;;;;;;30.37;10.00;;;10.10;99.90;;;;;;5030455;28;20228;-61
2022/04/05 05:37:12;;;;;;;25.37;9.63;;;10.10;99.90;;;;;;5030468;28;20165;-61
2022/04/05 05:39:38;;;;;;;32.33;10.50;;;10.10;99.90;;;;;;5030458;28;20216;-61
2022/04/05 05:42:06;;;;;;;25.83;10.30;;;10.10;99.90;;;;;;5030555;28;20202;-61
2022/04/05 05:44:32;;;;;;;34.60;9.97;;;10.10;99.90;;;;;;5030263;28;20197;-61
2022/04/05 05:46:58;;;;;;;28.80;9.93;;;10.10;99.90;;;;;;5030441;28;20189;-61
2022/04/05 05:49:24;;;;;;;33.13;9.40;;;10.10;99.90;;;;;;5030120;28;20238;-60
2022/04/05 05:51:50;;;;;;;31.30;8.93;;;10.10;99.90;;;;;;5034410;28;20302;-62
2022/04/05 05:54:16;;;;;;;24.73;8.53;;;10.10;99.90;;;;;;5036888;28;20545;-59
2022/04/05 05:56:42;;;;;;;30.50;9.67;;;10.10;99.90;;;;;;5036760;28;20173;-62
2022/04/05 05:59:08;;;;;;;30.73;9.03;;;10.10;99.90;;;;;;5036743;28;20178;-61
2022/04/05 06:01:34;;;;;;;28.77;9.67;;;10.10;99.90;;;;;;5036804;28;20175;-61
2022/04/05 06:04:00;;;;;;;30.33;10.30;;;10.10;99.90;;;;;;5036706;28;20249;-61
2022/04/05 06:06:28;;;;;;;32.80;11.80;;;10.20;99.90;;;;;;5036812;28;20177;-62
2022/04/05 06:08:55;;;;;;;29.50;10.93;;;10.20;99.90;;;;;;5036753;28;20209;-62
2022/04/05 06:11:22;;;;;;;38.40;11.23;;;10.20;99.90;;;;;;5036800;28;20176;-62
2022/04/05 06:13:48;;;;;;;31.73;11.53;;;10.30;99.90;;;;;;5036830;28;20182;-61
2022/04/05 06:16:14;;;;;;;33.63;10.73;;;10.30;99.90;;;;;;5036795;28;20174;-60
2022/04/05 06:18:42;;;;;;;39.57;11.03;;;10.30;99.90;;;;;;5036624;28;20188;-60
2022/04/05 06:21:08;;;;;;;27.17;10.30;;;10.30;99.90;;;;;;5036693;28;20170;-61
2022/04/05 06:23:34;;;;;;;25.30;10.60;;;10.30;99.90;;;;;;5036762;28;20208;-61
2022/04/05 06:26:00;;;;;;;25.70;10.20;;;10.30;99.90;;;;;;5036540;28;20257;-61
2022/04/05 06:28:27;;;;;;;22.87;9.43;;;10.40;99.90;;;;;;5036359;28;20193;-61
2022/04/05 06:30:52;;;;;;;30.87;10.53;;;10.40;99.90;;;;;;5036590;28;20185;-61
2022/04/05 06:33:24;;;;;;;43.83;10.43;;;10.40;99.90;;;;;;5036708;28;20604;-62
2022/04/05 06:35:52;;;;;;;35.13;10.47;;;10.40;99.90;;;;;;5036501;28;20633;-61
2022/04/05 06:38:19;;;;;;;35.87;10.73;;;10.50;99.90;;;;;;5036367;28;20701;-61
2022/04/05 06:40:46;;;;;;;29.03;10.30;;;10.40;99.90;;;;;;5036441;28;20174;-61
2022/04/05 06:43:16;;;;;;;42.93;9.40;;;10.50;99.90;;;;;;5036381;28;20174;-61
2022/04/05 06:45:42;;;;;;;27.03;9.67;;;10.50;99.90;;;;;;5036260;28;20181;-61
2022/04/05 06:48:09;;;;;;;36.23;11.00;;;10.50;99.90;;;;;;5036248;28;20217;-61
2022/04/05 06:50:36;;;;;;;28.10;8.97;;;10.50;99.90;;;;;;5036168;28;20217;-61
2022/04/05 06:53:04;;;;;;;30.70;9.37;;;10.60;99.90;;;;;;5036262;28;20166;-61
2022/04/05 06:55:30;;;;;;;25.93;8.23;;;10.60;99.90;;;;;;5036183;28;20166;-61
2022/04/05 06:57:56;;;;;;;22.47;8.47;;;10.70;99.90;;;;;;5036257;28;20223;-61
2022/04/05 07:00:23;;;;;;;29.40;7.50;;;10.70;99.90;;;;;;5036249;28;20348;-61
2022/04/05 07:02:51;;;;;;;30.70;7.60;;;10.80;99.90;;;;;;5034078;28;20182;-61
2022/04/05 07:05:17;;;;;;;27.43;6.40;;;10.80;99.90;;;;;;5033067;28;20284;-61
2022/04/05 07:07:43;;;;;;;24.60;6.40;;;10.80;99.90;;;;;;5032977;28;20173;-61
2022/04/05 07:10:11;;;;;;;25.73;7.23;;;10.80;99.90;;;;;;5031703;28;20647;-61
2022/04/05 07:12:37;;;;;;;24.13;6.30;;;10.90;99.90;;;;;;5032995;28;20170;-61
2022/04/05 07:15:05;;;;;;;23.53;6.10;;;10.90;99.90;;;;;;5032517;28;20174;-61
2022/04/05 07:17:31;;;;;;;24.70;6.00;;;11.00;99.90;;;;;;5033014;28;20162;-61
2022/04/05 07:19:57;;;;;;;23.77;5.47;;;12.00;99.90;;;;;;5032515;28;20685;-61
2022/04/05 07:22:24;;;;;;;27.13;5.73;;;11.00;99.90;;;;;;5032737;28;20173;-61
2022/04/05 07:24:50;;;;;;;30.60;6.07;;;11.10;99.90;;;;;;5032829;28;20185;-61
2022/04/05 07:27:15;;;;;;;29.17;5.03;;;11.20;99.90;;;;;;5032588;28;20630;-61
2022/04/05 07:29:41;;;;;;;18.67;4.07;;;11.30;99.90;;;;;;5032656;28;20220;-61
2022/04/05 07:32:07;;;;;;;19.07;4.27;;;11.30;99.90;;;;;;5032594;28;20181;-61
2022/04/05 07:34:33;;;;;;;22.30;4.43;;;11.40;99.90;;;;;;5031411;28;20277;-61
2022/04/05 07:36:59;;;;;;;26.97;3.87;;;11.50;99.90;;;;;;5032539;28;20257;-61
2022/04/05 07:39:25;;;;;;;28.97;4.50;;;11.50;99.90;;;;;;5032749;28;20232;-61
2022/04/05 07:41:52;;;;;;;25.20;4.00;;;11.60;99.90;;;;;;5032409;28;20216;-61
2022/04/05 07:44:18;;;;;;;30.13;3.73;;;11.70;99.90;;;;;;5032589;28;20178;-60
2022/04/05 07:46:43;;;;;;;28.80;4.17;;;11.70;99.90;;;;;;5032065;28;20212;-61
2022/04/05 07:49:09;;;;;;;22.13;4.20;;;11.70;99.90;;;;;;5032322;28;20221;-62
2022/04/05 07:51:35;;;;;;;27.83;4.17;;;11.80;99.90;;;;;;5032011;28;20166;-61
2022/04/05 07:54:01;;;;;;;27.23;4.20;;;11.70;99.90;;;;;;5032049;28;20169;-61
2022/04/05 07:56:27;;;;;;;28.00;4.63;;;11.80;99.90;;;;;;5032182;28;20208;-61
2022/04/05 07:58:53;;;;;;;24.10;4.07;;;11.60;99.90;;;;;;5032121;28;20170;-61
2022/04/05 08:01:19;;;;;;;22.73;3.60;;;11.60;99.90;;;;;;5032100;28;20178;-61
2022/04/05 08:03:44;;;;;;;26.53;4.10;;;11.70;99.90;;;;;;5031887;28;20262;-61
2022/04/05 08:06:10;;;;;;;24.63;4.13;;;11.60;99.90;;;;;;5032002;28;20312;-61
2022/04/05 08:08:36;;;;;;;23.40;3.93;;;11.70;99.90;;;;;;5031916;28;20633;-61
2022/04/05 08:11:02;;;;;;;23.30;3.70;;;11.90;99.90;;;;;;5030559;28;20178;-61
2022/04/05 08:13:28;;;;;;;16.90;3.50;;;12.10;99.90;;;;;;5031841;28;20632;-61
2022/04/05 08:15:55;;;;;;;29.27;4.07;;;12.30;99.90;;;;;;5030842;28;20169;-61
2022/04/05 08:18:21;;;;;;;23.30;4.30;;;12.70;99.90;;;;;;5031889;28;20172;-61
2022/04/05 08:20:47;;;;;;;29.17;3.97;;;13.20;99.90;;;;;;5031639;28;20169;-61
2022/04/05 08:23:13;;;;;;;22.25;3.88;;;14.10;99.90;;;;;;5031762;28;20656;-63
2022/04/05 08:25:39;;;;;;;21.13;4.43;;;13.90;99.90;;;;;;5030381;28;20601;-61
2022/04/05 08:28:05;;;;;;;20.25;3.80;;;13.70;99.90;;;;;;5031588;28;20197;-61
2022/04/05 08:30:32;;;;;;;22.20;4.20;;;13.30;99.90;;;;;;5031412;28;20213;-61
2022/04/05 08:32:57;;;;;;;19.05;3.60;;;13.50;99.90;;;;;;5031509;28;20239;-61
2022/04/05 08:35:24;;;;;;;19.13;3.88;;;13.70;99.90;;;;;;5031439;28;20173;-61
2022/04/05 08:37:52;;;;;;;20.50;4.20;;;13.80;99.90;;;;;;5031410;28;20174;-61
2022/04/05 08:40:20;;;;;;;20.17;3.97;;;14.30;99.90;;;;;;5029875;28;20214;-61
2022/04/05 08:42:49;;;;;;;24.90;4.40;;;14.40;99.90;;;;;;5031301;28;20752;-62
2022/04/05 08:45:16;;;;;;;17.20;3.50;;;14.80;99.90;;;;;;5031293;28;20170;-61
2022/04/05 08:47:52;;;;;;;23.60;3.65;;;15.20;99.90;;;;;;5031036;28;20219;-61
2022/04/05 08:50:30;;;;;;;23.63;3.92;;;15.20;99.90;;;;;;5030996;28;20240;-61
2022/04/05 08:53:01;;;;;;;15.75;2.65;;;15.20;99.90;;;;;;5031138;28;20170;-61
2022/04/05 08:55:28;;;;;;;17.90;3.47;;;15.30;99.90;;;;;;5030970;28;20308;-61
2022/04/05 08:57:56;;;;;;;20.63;3.67;;;15.30;99.90;;;;;;5030900;28;20170;-61
2022/04/05 09:00:23;;;;;;;17.70;3.15;;;15.70;99.90;;;;;;5031081;28;20182;-61
2022/04/05 09:03:07;;;;;;;17.52;3.63;;;15.60;99.90;;;;;;5031003;28;20672;-61
2022/04/05 09:05:43;;;;;;;18.73;3.40;;;16.00;99.90;;;;;;5030904;28;20169;-61
2022/04/05 09:08:13;;;;;;;21.50;3.35;;;16.10;99.90;;;;;;5030942;28;20219;-61
2022/04/05 09:10:40;;;;;;;21.33;3.63;;;15.90;99.90;;;;;;5030588;28;20210;-61
2022/04/05 09:13:10;;;;;;;18.83;3.45;;;16.00;99.90;;;;;;5030445;28;20196;-61
2022/04/05 09:15:37;;;;;;;18.08;3.20;;;15.80;99.90;;;;;;5030619;28;20196;-61
2022/04/05 09:18:04;;;;;;;15.10;2.90;;;15.50;99.90;;;;;;5030782;28;20256;-62
2022/04/05 09:20:30;;;;;;;14.77;2.85;;;15.70;99.90;;;;;;5030600;28;20178;-61
2022/04/05 09:23:01;;;;;;;13.15;2.40;;;14.90;99.90;;;;;;5030518;28;20177;-61
2022/04/05 09:25:27;;;;;;;14.73;2.38;;;14.40;99.90;;;;;;5030174;28;20205;-61
2022/04/05 09:27:54;;;;;;;14.50;2.35;;;14.40;99.90;;;;;;5030571;28;20248;-61
2022/04/05 09:30:28;;;;;;;16.13;2.85;;;14.00;99.90;;;;;;5030251;28;20230;-61
2022/04/05 09:32:58;;;;;;;18.42;2.92;;;13.70;99.90;;;;;;5030461;28;20508;-61
2022/04/05 09:35:40;;;;;;;18.02;3.22;;;14.00;99.90;;;;;;5030529;28;20177;-62
2022/04/05 09:38:17;;;;;;;12.95;2.70;;;14.10;99.90;;;;;;5030411;28;20172;-61
2022/04/05 09:40:43;;;;;;;20.10;2.97;;;14.00;99.90;;;;;;5030442;28;20193;-62
2022/04/05 09:43:13;;;;;;;13.98;2.67;;;14.10;99.90;;;;;;5030713;28;20259;-62
2022/04/05 09:45:48;;;;;;;16.23;2.72;;;13.80;99.90;;;;;;5030350;28;20175;-62
2022/04/05 09:48:19;;;;;;;11.52;2.65;;;14.00;99.90;;;;;;5030377;28;20768;-62
2022/04/05 09:50:59;;;;;;;18.40;2.42;;;13.80;99.90;;;;;;5030319;28;20201;-62
2022/04/05 09:53:27;;;;;;;14.07;2.42;;;13.60;99.90;;;;;;5030250;28;20185;-62
2022/04/05 09:56:04;;;;;;;15.65;2.40;;;13.40;99.90;;;;;;5030357;28;20212;-62
2022/04/05 09:58:31;;;;;;;13.77;2.35;;;13.40;99.90;;;;;;5030239;28;20165;-61
2022/04/05 10:01:08;;;;;;;23.73;3.17;;;13.60;99.90;;;;;;5030216;28;20220;-62
2022/04/05 10:03:35;;;;;;;16.60;3.25;;;15.80;99.90;;;;;;5030060;28;20165;-62
2022/04/05 10:06:02;;;;;;;15.65;2.80;;;16.60;99.90;;;;;;5030084;28;20174;-61
2022/04/05 10:08:33;;;;;;;15.23;2.65;;;17.00;99.90;;;;;;5030141;28;20174;-61
2022/04/05 10:10:59;;;;;;;18.48;3.15;;;16.90;99.90;;;;;;5029982;28;20277;-61
2022/04/05 10:13:27;;;;;;;14.40;2.42;;;16.50;99.90;;;;;;5029993;28;20166;-61
2022/04/05 10:15:54;;;;;;;15.48;2.50;;;17.00;99.90;;;;;;5029994;28;20257;-61
2022/04/05 10:18:20;;;;;;;17.23;3.10;;;17.80;99.90;;;;;;5030024;28;20744;-62
2022/04/05 10:20:50;;;;;;;14.48;2.75;;;17.10;99.90;;;;;;5030212;28;20170;-61
2022/04/05 10:23:22;;;;;;;17.25;3.20;;;17.40;99.90;;;;;;5030293;28;20192;-61
2022/04/05 10:25:52;;;;;;;15.18;2.95;;;17.00;99.90;;;;;;5029955;28;20166;-61
2022/04/05 10:28:22;;;;;;;16.02;3.22;;;15.70;99.90;;;;;;5029997;28;20166;-62
2022/04/05 10:30:56;;;;;;;21.95;3.67;;;15.60;99.90;;;;;;5030133;28;20213;-62
2022/04/05 10:33:39;;;;;;;25.30;4.30;;;15.30;99.90;;;;;;5030085;28;20182;-61
2022/04/05 10:36:08;;;;;;;21.83;2.75;;;16.30;99.90;;;;;;5029876;28;20174;-61
2022/04/05 10:38:34;;;;;;;12.73;3.28;;;16.00;99.90;;;;;;5031526;28;20162;-61
2022/04/05 10:41:20;;;;;;;21.40;4.20;;;15.10;99.90;;;;;;5033662;28;20200;-62
2022/04/05 10:44:22;;;;;;;25.08;3.58;;;14.80;99.90;;;;;;5033565;28;20181;-61
2022/04/05 10:47:01;;;;;;;26.35;3.20;;;14.20;99.90;;;;;;5033168;28;20185;-62
2022/04/05 10:49:42;;;;;;;20.85;2.97;;;14.50;99.90;;;;;;5032927;28;20313;-61
2022/04/05 10:52:10;;;;;;;25.33;3.25;;;14.50;99.90;;;;;;5033483;28;20228;-61
2022/04/05 10:54:42;;;;;;;17.80;2.80;;;14.30;99.90;;;;;;5033269;28;20166;-60
2022/04/05 10:57:30;;;;;;;18.67;3.08;;;14.10;99.90;;;;;;5033302;28;20170;-61
2022/04/05 10:59:58;;;;;;;23.35;3.45;;;13.90;99.90;;;;;;5033087;28;20268;-61
2022/04/05 11:02:32;;;;;;;17.88;2.88;;;13.60;99.90;;;;;;5033006;28;20268;-61
2022/04/05 11:05:13;;;;;;;26.60;3.72;;;13.40;99.90;;;;;;5033003;28;20185;-61
2022/04/05 11:07:54;;;;;;;18.45;3.20;;;13.20;99.90;;;;;;5032884;28;20248;-61
2022/04/05 11:10:27;;;;;;;18.15;2.58;;;13.30;99.90;;;;;;5032596;28;20206;-61
2022/04/05 11:13:11;;;;;;;19.25;2.67;;;13.40;99.90;;;;;;5032989;28;20204;-60
2022/04/05 11:15:48;;;;;;;19.07;2.70;;;13.50;99.90;;;;;;5032633;28;20189;-62
2022/04/05 11:18:16;;;;;;;21.20;3.10;;;13.40;99.90;;;;;;5032787;28;20169;-62
2022/04/05 11:20:43;;;;;;;18.90;3.33;;;13.50;99.90;;;;;;5032770;28;20553;-62
2022/04/05 11:23:10;;;;;;;16.10;2.70;;;13.60;99.90;;;;;;5032710;28;20166;-62
2022/04/05 11:25:36;;;;;;;13.90;2.72;;;14.20;99.90;;;;;;5032917;28;20174;-63
2022/04/05 11:28:21;;;;;;;22.27;3.20;;;14.20;99.90;;;;;;5032847;28;20166;-61
2022/04/05 11:31:02;;;;;;;17.95;3.05;;;14.00;99.90;;;;;;5032680;28;20225;-63
2022/04/05 11:33:31;;;;;;;17.13;3.00;;;13.80;99.90;;;;;;5032834;28;20190;-63
2022/04/05 11:36:07;;;;;;;15.27;3.10;;;13.80;99.90;;;;;;5032567;28;20174;-63
2022/04/05 11:38:47;;;;;;;14.10;2.83;;;13.70;99.90;;;;;;5031286;28;20173;-63
2022/04/05 11:41:26;;;;;;;19.23;3.35;;;13.40;99.90;;;;;;5032507;28;20625;-63
2022/04/05 11:44:01;;;;;;;16.88;2.72;;;13.80;99.90;;;;;;5032469;28;20633;-63
2022/04/05 11:46:30;;;;;;;21.42;3.42;;;14.40;99.90;;;;;;5032534;28;20256;-63
2022/04/05 11:48:58;;;;;;;19.27;3.00;;;15.00;99.90;;;;;;5031828;28;20222;-64
2022/04/05 11:51:26;;;;;;;19.80;3.35;;;15.00;99.90;;;;;;5030943;28;20181;-63
2022/04/05 11:54:06;;;;;;;21.58;3.63;;;14.60;99.90;;;;;;5032244;28;20162;-63
2022/04/05 11:56:34;;;;;;;15.55;2.97;;;14.30;99.90;;;;;;5032435;28;20181;-63
2022/04/05 11:59:03;;;;;;;18.58;3.15;;;14.10;99.90;;;;;;5032279;28;20178;-63
2022/04/05 12:01:36;;;;;;;13.95;2.63;;;14.20;99.90;;;;;;5031990;28;20166;-63
2022/04/05 12:04:06;;;;;;;17.50;2.67;;;14.20;99.90;;;;;;5032098;28;20236;-61
2022/04/05 12:06:34;;;;;;;21.73;2.92;;;14.10;99.90;;;;;;5031764;28;20652;-62
2022/04/05 12:09:11;;;;;;;18.02;3.20;;;14.20;99.90;;;;;;5031777;28;20216;-62
2022/04/05 12:11:39;;;;;;;18.92;3.53;;;14.40;99.90;;;;;;5031800;28;20201;-62
2022/04/05 12:14:11;;;;;;;20.02;2.90;;;14.60;99.90;;;;;;5030530;28;20261;-62
2022/04/05 12:16:57;;;;;;;12.75;2.33;;;14.90;99.90;;;;;;5031987;28;20178;-63
2022/04/05 12:19:31;;;;;;;17.60;3.38;;;15.30;99.90;;;;;;5031746;28;20632;-64
2022/04/05 12:22:02;;;;;;;16.40;2.28;;;15.70;99.90;;;;;;5031455;28;20269;-64
2022/04/05 12:24:30;;;;;;;15.35;2.75;;;16.40;99.90;;;;;;5031544;28;20182;-61
2022/04/05 12:26:57;;;;;;;15.75;2.97;;;16.30;99.90;;;;;;5031467;28;20182;-64
2022/04/05 12:29:24;;;;;;;15.98;2.78;;;16.20;99.90;;;;;;5031516;28;20205;-62
2022/04/05 12:31:49;;;;;;;17.95;2.38;;;16.00;99.90;;;;;;5031432;28;20223;-64
2022/04/05 12:34:18;;;;;;;18.45;2.88;;;16.20;99.90;;;;;;5031412;28;20174;-62
2022/04/05 12:36:55;;;;;;;14.43;2.67;;;16.30;99.90;;;;;;5031423;28;20647;-64
2022/04/05 12:39:27;;;;;;;13.18;2.40;;;16.40;99.90;;;;;;5029888;28;20264;-62